Time;durP1;ratioP1;P1;durP2;ratioP2;P2;SDS_P1;SDS_P2;PMS_P1;PMS_P2;Temp;Humidity;BMP_temperature;BMP_pressure;BME280_temperature;BME280_humidity;BME280_pressure;Samples;Min_cycle;Max_cycle;Signal;HPM_P1;HPM_P2
2022/12/15 00:38:43;;;;;;;111.30;85.22;;;-0.50;27.90;;;;;;5058273;28;20255;-69
2022/12/15 00:41:13;;;;;;;106.05;82.47;;;-0.50;28.70;;;;;;5057870;28;20207;-69
2022/12/15 00:43:39;;;;;;;117.18;103.35;;;-0.50;28.90;;;;;;5058638;28;20171;-70
2022/12/15 00:48:49;;;;;;;99.30;68.00;;;-0.50;29.20;;;;;;5057229;28;20173;-70
2022/12/15 00:51:15;;;;;;;109.87;86.13;;;-0.50;28.90;;;;;;5055384;28;20230;-69
2022/12/15 01:21:07;;;;;;;114.50;82.82;;;-0.60;28.80;;;;;;5054797;28;20215;-70
2022/12/15 01:23:33;;;;;;;121.93;93.63;;;-0.70;29.40;;;;;;5054544;28;20689;-70
2022/12/15 01:26:00;;;;;;;111.72;79.75;;;-0.70;29.20;;;;;;5055437;28;20175;-70
2022/12/15 01:28:26;;;;;;;119.47;103.95;;;-0.80;29.90;;;;;;5052890;28;20177;-70
2022/12/15 01:30:52;;;;;;;122.57;102.38;;;-1.00;30.00;;;;;;5054873;28;20232;-70
2022/12/15 01:33:19;;;;;;;114.47;97.30;;;-1.10;30.80;;;;;;5054711;28;20189;-69
2022/12/15 01:35:53;;;;;;;114.60;82.78;;;-1.10;31.80;;;;;;5058405;28;20412;-70
2022/12/15 01:38:19;;;;;;;116.63;88.60;;;-1.00;31.80;;;;;;5057284;28;20238;-71
2022/12/15 01:40:54;;;;;;;114.90;100.90;;;-1.00;31.30;;;;;;5057101;28;20210;-70
2022/12/15 01:43:25;;;;;;;117.13;90.97;;;-1.00;31.00;;;;;;5056359;28;20549;-70
2022/12/15 01:46:07;;;;;;;120.85;100.82;;;-1.10;31.70;;;;;;5052724;28;20180;-71
2022/12/15 01:48:48;;;;;;;116.97;90.40;;;-1.00;31.50;;;;;;5054718;28;20242;-69
2022/12/15 01:51:27;;;;;;;109.15;89.43;;;-1.00;31.10;;;;;;5054950;28;20701;-70
2022/12/15 01:54:02;;;;;;;244.00;221.27;;;-1.20;31.30;;;;;;5055134;28;20208;-69
2022/12/15 01:56:34;;;;;;;123.10;101.18;;;-1.20;31.60;;;;;;5053329;28;20203;-69
2022/12/15 01:59:01;;;;;;;116.72;94.97;;;-1.30;32.20;;;;;;5054071;28;20183;-70
2022/12/15 02:01:27;;;;;;;117.13;101.93;;;-1.20;33.00;;;;;;5055180;28;20216;-69
2022/12/15 02:03:53;;;;;;;124.25;110.82;;;-1.20;33.00;;;;;;5055530;28;20168;-70
2022/12/15 02:06:21;;;;;;;115.27;101.27;;;-1.10;33.10;;;;;;5058611;28;20253;-71
2022/12/15 02:08:49;;;;;;;119.90;93.68;;;-1.10;32.30;;;;;;5056407;28;20436;-70
2022/12/15 02:11:36;;;;;;;118.57;89.63;;;-1.10;32.30;;;;;;5056972;28;20196;-71
2022/12/15 02:14:08;;;;;;;122.00;102.80;;;-1.10;32.20;;;;;;5051995;28;20217;-70
2022/12/15 02:17:05;;;;;;;119.43;91.32;;;-1.20;33.00;;;;;;5051773;28;20220;-70
2022/12/15 02:20:17;;;;;;;127.00;101.25;;;-1.10;33.10;;;;;;5052720;28;20583;-70
2022/12/15 02:22:55;;;;;;;110.75;88.65;;;-1.10;30.90;;;;;;5056059;28;20551;-70
2022/12/15 02:25:38;;;;;;;120.80;84.25;;;-1.10;31.40;;;;;;5055978;28;20189;-70
2022/12/15 02:28:10;;;;;;;115.55;81.82;;;-1.10;31.20;;;;;;5057529;28;20184;-70
2022/12/15 02:33:51;;;;;;;117.68;92.30;;;-1.00;33.10;;;;;;5057938;28;20552;-71
2022/12/15 02:36:31;;;;;;;122.95;94.65;;;-1.10;31.40;;;;;;5058319;28;20178;-71
2022/12/15 02:38:56;;;;;;;168.95;152.52;;;-1.20;31.90;;;;;;5058588;28;20537;-70
2022/12/15 02:41:38;;;;;;;113.37;92.63;;;-1.10;32.40;;;;;;5057396;28;20240;-70
2022/12/15 02:44:43;;;;;;;116.70;87.60;;;-1.20;32.70;;;;;;5059595;28;20650;-71
2022/12/15 02:47:14;;;;;;;116.03;88.05;;;-1.20;33.00;;;;;;5058579;28;20327;-71
2022/12/15 02:50:16;;;;;;;118.10;97.97;;;-1.20;33.00;;;;;;5058983;28;20632;-70
2022/12/15 02:52:48;;;;;;;116.22;80.13;;;-1.10;33.10;;;;;;5060663;28;20187;-70
2022/12/15 02:55:23;;;;;;;116.43;99.47;;;-1.10;33.70;;;;;;5060389;28;20181;-70
2022/12/15 02:58:12;;;;;;;112.68;93.20;;;-1.00;32.10;;;;;;5060337;28;20235;-71
2022/12/15 03:00:44;;;;;;;117.35;88.68;;;-1.00;33.10;;;;;;5059906;28;20213;-71
2022/12/15 03:03:18;;;;;;;116.32;97.93;;;-1.00;32.70;;;;;;5060041;28;20524;-71
2022/12/15 03:05:53;;;;;;;118.35;97.90;;;-1.00;33.10;;;;;;5060275;28;20530;-71
2022/12/15 03:08:19;;;;;;;117.75;95.18;;;-1.00;31.40;;;;;;5061928;28;20166;-71
2022/12/15 03:10:46;;;;;;;122.93;106.05;;;-1.10;31.50;;;;;;5061876;28;20261;-71
2022/12/15 03:13:13;;;;;;;119.57;100.88;;;-1.10;32.90;;;;;;5060678;28;20229;-71
2022/12/15 03:15:38;;;;;;;119.60;98.53;;;-1.00;32.90;;;;;;5059874;28;20564;-71
2022/12/15 03:18:04;;;;;;;119.80;100.33;;;-0.90;33.30;;;;;;5059548;28;20186;-71
2022/12/15 03:20:30;;;;;;;118.77;103.53;;;-0.90;32.60;;;;;;5058804;28;20206;-71
2022/12/15 03:22:55;;;;;;;115.60;96.80;;;-0.80;32.60;;;;;;5059533;28;20196;-71
2022/12/15 03:25:21;;;;;;;118.00;93.90;;;-0.80;32.40;;;;;;5060678;28;20176;-71
2022/12/15 03:27:46;;;;;;;116.57;96.70;;;-0.80;32.20;;;;;;5061086;28;20170;-71
2022/12/15 03:30:12;;;;;;;118.37;99.03;;;-0.80;31.70;;;;;;5061418;28;20209;-71
2022/12/15 03:32:38;;;;;;;129.32;115.30;;;-0.80;31.40;;;;;;5058314;28;20218;-70
2022/12/15 03:35:04;;;;;;;126.10;106.13;;;-0.90;30.70;;;;;;5059899;28;20208;-70
2022/12/15 03:37:30;;;;;;;130.38;116.60;;;-0.90;31.60;;;;;;5059990;28;20181;-70
2022/12/15 03:39:56;;;;;;;121.50;104.60;;;-0.90;31.20;;;;;;5059320;28;20279;-71
2022/12/15 03:42:47;;;;;;;119.87;106.93;;;-0.90;31.70;;;;;;5058533;28;20209;-70
2022/12/15 03:45:07;;;;;;;114.43;95.85;;;-0.90;31.00;;;;;;5058290;28;20188;-70
2022/12/15 03:47:33;;;;;;;116.68;97.15;;;-1.00;31.70;;;;;;5058808;28;20220;-69
2022/12/15 03:49:58;;;;;;;120.60;105.13;;;-1.10;31.60;;;;;;5056750;28;20288;-70
2022/12/15 03:52:24;;;;;;;138.53;124.33;;;-1.10;32.00;;;;;;5057713;28;20169;-70
2022/12/15 03:54:50;;;;;;;119.80;99.87;;;-1.20;32.00;;;;;;5056802;28;20739;-69
2022/12/15 03:57:15;;;;;;;116.83;98.47;;;-1.20;32.70;;;;;;5057828;28;20197;-70
2022/12/15 03:59:41;;;;;;;126.83;112.37;;;-1.20;32.50;;;;;;5075178;28;20200;-70
2022/12/15 04:02:08;;;;;;;112.43;86.10;;;-1.30;32.90;;;;;;5073589;28;20209;-70
2022/12/15 04:04:34;;;;;;;141.95;123.18;;;-1.30;32.90;;;;;;5059308;28;20578;-70
2022/12/15 04:06:59;;;;;;;130.47;115.37;;;-1.30;32.90;;;;;;5056662;28;20184;-70
2022/12/15 04:09:25;;;;;;;120.00;96.93;;;-1.30;32.90;;;;;;5071609;28;20216;-70
2022/12/15 04:11:50;;;;;;;114.53;69.80;;;-1.40;32.80;;;;;;5056633;28;20178;-70
2022/12/15 04:14:16;;;;;;;130.60;107.97;;;-1.40;32.80;;;;;;5056231;28;20189;-70
2022/12/15 04:16:41;;;;;;;113.50;83.03;;;-1.40;32.80;;;;;;5056157;28;20267;-69
2022/12/15 04:21:51;;;;;;;107.53;75.07;;;-1.30;34.10;;;;;;5058197;28;20265;-70
2022/12/15 05:32:37;;;;;;;128.70;112.13;;;-1.10;33.00;;;;;;5054088;28;20184;-70
2022/12/15 05:35:03;;;;;;;123.90;108.63;;;-1.10;33.00;;;;;;5054534;28;20181;-70
2022/12/15 05:37:29;;;;;;;119.85;94.50;;;-1.00;31.70;;;;;;5055440;28;20182;-70
2022/12/15 05:39:54;;;;;;;124.50;104.50;;;-1.00;31.80;;;;;;5062230;28;20202;-70
2022/12/15 05:42:20;;;;;;;121.80;101.03;;;-1.10;31.70;;;;;;5062155;28;20218;-70
2022/12/15 05:44:45;;;;;;;127.27;112.67;;;-1.00;32.20;;;;;;5057539;28;20178;-70
2022/12/15 05:47:11;;;;;;;137.80;122.70;;;-1.00;30.90;;;;;;5054307;28;20177;-70
2022/12/15 05:49:36;;;;;;;133.20;117.87;;;-1.20;31.40;;;;;;5069085;28;20264;-70
2022/12/15 05:52:02;;;;;;;130.50;102.80;;;-1.20;32.50;;;;;;5071396;28;20182;-70
2022/12/15 05:54:28;;;;;;;137.40;122.10;;;-1.20;31.70;;;;;;5056488;28;20194;-71
2022/12/15 05:56:53;;;;;;;115.23;99.50;;;-1.20;31.90;;;;;;5058713;28;20544;-70
2022/12/15 05:59:19;;;;;;;121.07;97.60;;;-1.30;32.90;;;;;;5060115;28;20191;-70
2022/12/15 06:01:45;;;;;;;114.13;95.30;;;-1.30;32.90;;;;;;5059313;28;20217;-70
2022/12/15 06:04:11;;;;;;;124.40;98.23;;;-1.30;32.90;;;;;;5058995;28;20178;-70
2022/12/15 06:06:37;;;;;;;129.57;105.63;;;-1.30;32.90;;;;;;5059852;28;20403;-70
2022/12/15 06:09:03;;;;;;;127.18;106.70;;;-1.30;32.90;;;;;;5059270;28;20183;-70
2022/12/15 06:11:29;;;;;;;124.60;92.73;;;-1.20;33.00;;;;;;5073508;28;20553;-70
2022/12/15 06:13:56;;;;;;;152.03;129.33;;;-1.10;33.00;;;;;;5058257;28;20177;-69
2022/12/15 06:16:24;;;;;;;126.30;100.05;;;-1.20;32.40;;;;;;5058174;28;20174;-72
2022/12/15 06:18:54;;;;;;;131.93;108.85;;;-1.30;32.90;;;;;;5059122;28;20193;-71
2022/12/15 06:21:22;;;;;;;122.97;109.60;;;-1.20;33.00;;;;;;5057854;28;20206;-70
2022/12/15 06:23:48;;;;;;;119.03;95.28;;;-1.20;33.00;;;;;;5056465;28;20171;-70
2022/12/15 06:26:16;;;;;;;120.07;96.90;;;-1.30;32.90;;;;;;5056247;28;20184;-70
2022/12/15 06:28:42;;;;;;;124.82;102.93;;;-1.20;33.00;;;;;;5056687;28;20432;-70
2022/12/15 06:31:10;;;;;;;121.47;101.53;;;-1.10;32.10;;;;;;5057046;28;20216;-70
2022/12/15 06:33:37;;;;;;;125.70;105.15;;;-1.10;32.30;;;;;;5056372;28;20274;-70
2022/12/15 06:36:07;;;;;;;118.40;99.15;;;-1.10;31.40;;;;;;5071810;28;20186;-71
2022/12/15 06:38:34;;;;;;;135.48;115.70;;;-1.10;32.50;;;;;;5073753;28;20188;-70
2022/12/15 06:41:01;;;;;;;121.68;108.93;;;-1.00;32.10;;;;;;5058513;28;20214;-70
2022/12/15 06:43:28;;;;;;;139.57;125.47;;;-1.00;31.40;;;;;;5058507;28;20179;-71
2022/12/15 06:45:54;;;;;;;118.13;98.68;;;-0.90;31.80;;;;;;5059933;28;20212;-71
2022/12/15 06:48:21;;;;;;;115.73;83.23;;;-1.00;31.70;;;;;;5058318;28;20619;-73
2022/12/15 06:50:47;;;;;;;123.22;96.60;;;-0.80;31.30;;;;;;5059270;28;20210;-71
2022/12/15 06:53:14;;;;;;;125.50;111.07;;;-0.90;30.80;;;;;;5058087;28;20204;-71
2022/12/15 06:55:40;;;;;;;119.50;89.70;;;-0.90;30.80;;;;;;5058699;28;20420;-75
2022/12/15 06:58:06;;;;;;;121.25;99.88;;;-0.80;30.40;;;;;;5057430;28;20173;-69
2022/12/15 07:00:35;;;;;;;125.23;100.00;;;-0.90;30.50;;;;;;5057870;28;20285;-70
2022/12/15 07:03:08;;;;;;;127.75;113.68;;;-0.90;30.00;;;;;;5072523;28;20528;-69
2022/12/15 07:05:34;;;;;;;124.38;94.88;;;-1.00;30.30;;;;;;5056647;28;20528;-69
2022/12/15 07:08:00;;;;;;;122.73;101.63;;;-1.00;30.90;;;;;;5056879;28;20174;-70
2022/12/15 07:10:25;;;;;;;129.67;111.80;;;-1.00;30.80;;;;;;5056814;28;20602;-70
2022/12/15 07:12:51;;;;;;;123.13;96.70;;;-1.10;30.40;;;;;;5057690;28;20821;-69
2022/12/15 07:15:16;;;;;;;144.47;111.07;;;-1.00;30.90;;;;;;5057580;28;20216;-69
2022/12/15 07:17:42;;;;;;;127.30;112.63;;;-1.00;30.80;;;;;;5055968;28;20178;-69
2022/12/15 07:20:08;;;;;;;122.63;92.73;;;-1.00;31.30;;;;;;5056666;28;20687;-70
2022/12/15 07:22:34;;;;;;;122.33;108.67;;;-1.00;30.60;;;;;;5056079;28;20210;-70
2022/12/15 07:24:59;;;;;;;131.23;115.93;;;-0.90;31.10;;;;;;5056978;28;20757;-70
2022/12/15 07:27:25;;;;;;;113.33;90.50;;;-0.80;30.90;;;;;;5057756;28;20186;-70
2022/12/15 07:29:51;;;;;;;116.28;97.78;;;-0.70;29.60;;;;;;5057288;28;20209;-70
2022/12/15 07:32:17;;;;;;;127.73;102.30;;;-0.70;29.40;;;;;;5072089;28;20186;-69
2022/12/15 07:34:43;;;;;;;126.82;110.95;;;-0.70;29.60;;;;;;5058317;28;20174;-67
2022/12/15 07:37:09;;;;;;;123.22;102.07;;;-0.80;29.50;;;;;;5058033;28;20170;-68
2022/12/15 07:39:35;;;;;;;127.70;101.87;;;-0.80;30.10;;;;;;5058077;28;20720;-68
2022/12/15 07:42:00;;;;;;;123.22;95.88;;;-0.80;30.00;;;;;;5058011;28;20198;-68
2022/12/15 07:44:27;;;;;;;124.50;103.27;;;-0.80;30.10;;;;;;5057704;28;20648;-68
2022/12/15 07:46:53;;;;;;;121.53;93.50;;;-0.80;30.60;;;;;;5055496;28;20177;-67
2022/12/15 07:49:19;;;;;;;120.63;96.95;;;-0.70;30.70;;;;;;5055713;28;20184;-68
2022/12/15 07:51:45;;;;;;;133.30;118.80;;;-0.70;30.60;;;;;;5056126;28;20210;-69
2022/12/15 07:54:11;;;;;;;130.27;108.20;;;-0.60;30.30;;;;;;5055997;28;20173;-69
2022/12/15 07:56:38;;;;;;;124.20;95.57;;;-0.70;30.00;;;;;;5056090;28;20198;-69
2022/12/15 07:59:04;;;;;;;130.00;106.70;;;-0.50;30.00;;;;;;5055839;28;20174;-70
2022/12/15 08:01:30;;;;;;;132.18;99.80;;;-0.40;29.40;;;;;;5070679;28;20202;-69
2022/12/15 08:03:56;;;;;;;127.17;95.20;;;-0.40;28.90;;;;;;5056339;28;20181;-70
2022/12/15 08:06:21;;;;;;;115.63;88.07;;;-0.30;29.00;;;;;;5056516;28;20182;-70
2022/12/15 08:08:47;;;;;;;116.17;85.07;;;-0.10;28.70;;;;;;5054770;28;20210;-70
2022/12/15 08:11:14;;;;;;;120.10;85.03;;;-0.10;28.10;;;;;;5053291;28;20222;-70
2022/12/15 08:13:40;;;;;;;125.97;88.15;;;0.00;28.20;;;;;;5035874;28;20186;-70
2022/12/15 08:16:06;;;;;;;128.00;101.40;;;0.10;28.40;;;;;;5036664;28;20234;-70
2022/12/15 08:18:32;;;;;;;116.03;85.77;;;0.20;28.00;;;;;;5039729;28;20182;-68
2022/12/15 08:21:06;;;;;;;118.50;92.93;;;0.20;27.10;;;;;;5056068;28;20248;-68
2022/12/15 08:23:32;;;;;;;119.88;90.35;;;0.30;27.40;;;;;;5071906;28;20239;-69
2022/12/15 08:26:06;;;;;;;125.87;99.93;;;0.20;27.10;;;;;;5041046;28;20186;-69
2022/12/15 08:28:33;;;;;;;117.68;82.38;;;0.30;27.80;;;;;;5034629;28;20175;-70
2022/12/15 08:31:13;;;;;;;122.78;103.47;;;0.40;27.80;;;;;;5048158;28;20215;-69
2022/12/15 08:33:40;;;;;;;119.28;86.00;;;0.60;26.90;;;;;;5031602;28;20219;-69
2022/12/15 08:36:07;;;;;;;124.57;108.18;;;0.70;25.70;;;;;;5033205;28;20213;-69
2022/12/15 08:38:34;;;;;;;126.28;99.00;;;0.70;25.60;;;;;;5035210;28;20205;-69
2022/12/15 08:41:22;;;;;;;136.02;104.57;;;0.70;25.60;;;;;;5033389;28;20350;-70
2022/12/15 08:43:48;;;;;;;119.80;79.68;;;0.80;25.70;;;;;;5032668;28;20194;-68
2022/12/15 08:46:17;;;;;;;127.10;86.85;;;0.90;24.20;;;;;;5034362;28;20179;-69
2022/12/15 08:48:43;;;;;;;121.15;96.63;;;1.10;24.30;;;;;;5032755;28;20189;-68
2022/12/15 08:51:09;;;;;;;135.43;119.30;;;1.30;23.90;;;;;;5032511;28;20202;-69
2022/12/15 08:53:35;;;;;;;122.93;104.77;;;1.50;22.70;;;;;;5050898;28;20198;-70
2022/12/15 08:56:05;;;;;;;127.83;103.30;;;1.70;22.20;;;;;;5063959;28;20199;-68
2022/12/15 08:58:31;;;;;;;104.50;66.28;;;1.50;21.50;;;;;;5044860;28;20198;-68
2022/12/15 09:01:09;;;;;;;121.33;89.93;;;1.50;23.00;;;;;;5033535;28;20207;-70
2022/12/15 09:03:35;;;;;;;125.68;111.13;;;1.60;22.10;;;;;;5039378;28;20178;-70
2022/12/15 09:06:11;;;;;;;109.70;67.43;;;1.70;21.00;;;;;;5051792;28;20182;-69
2022/12/15 09:08:37;;;;;;;257.33;237.18;;;1.70;20.80;;;;;;5056065;28;20437;-70
2022/12/15 09:11:04;;;;;;;129.97;110.57;;;1.60;21.20;;;;;;5056619;28;20209;-69
2022/12/15 09:13:30;;;;;;;135.70;116.57;;;1.30;21.90;;;;;;5056755;28;20192;-69
2022/12/15 09:16:04;;;;;;;240.50;220.57;;;1.10;22.00;;;;;;5047255;28;20183;-69
2022/12/15 09:18:30;;;;;;;111.32;64.72;;;0.90;23.10;;;;;;5054399;28;20266;-68
2022/12/15 09:21:03;;;;;;;119.00;92.97;;;0.70;23.90;;;;;;5052335;28;20297;-69
2022/12/15 09:23:29;;;;;;;116.53;100.70;;;0.90;24.40;;;;;;5070288;28;20460;-69
2022/12/15 09:26:05;;;;;;;136.80;112.27;;;0.70;25.60;;;;;;5060889;28;20232;-70
2022/12/15 09:28:31;;;;;;;129.30;103.10;;;0.80;25.30;;;;;;5069778;28;20173;-69
2022/12/15 09:31:04;;;;;;;163.20;147.17;;;1.10;25.90;;;;;;5076465;28;20217;-70
2022/12/15 09:33:31;;;;;;;120.93;86.95;;;1.10;23.80;;;;;;5077066;28;20186;-69
2022/12/15 09:35:56;;;;;;;139.68;120.95;;;1.20;23.00;;;;;;5077147;28;20190;-69
2022/12/15 09:38:22;;;;;;;189.27;171.60;;;1.10;23.50;;;;;;5062477;28;20560;-69
2022/12/15 09:40:48;;;;;;;267.17;246.77;;;1.00;23.50;;;;;;5055564;28;20204;-70
2022/12/15 09:43:20;;;;;;;126.68;103.70;;;1.00;24.00;;;;;;5072891;28;20200;-69
2022/12/15 09:45:54;;;;;;;206.18;188.95;;;1.10;23.60;;;;;;5077537;28;20178;-69
2022/12/15 09:48:22;;;;;;;118.40;82.60;;;1.30;24.10;;;;;;5076175;28;20643;-69
2022/12/15 09:50:51;;;;;;;151.63;136.38;;;1.50;23.80;;;;;;5076136;28;20680;-69
2022/12/15 09:53:17;;;;;;;252.15;232.45;;;1.80;22.60;;;;;;5058897;28;20183;-68
2022/12/15 09:55:50;;;;;;;198.60;180.50;;;1.90;21.90;;;;;;5039117;28;20171;-69
2022/12/15 09:58:35;;;;;;;299.20;275.08;;;1.90;21.50;;;;;;5053563;28;20183;-69
2022/12/15 10:01:22;;;;;;;319.35;294.98;;;1.50;22.00;;;;;;5060792;28;20229;-68
2022/12/15 10:04:12;;;;;;;482.45;445.40;;;1.40;22.20;;;;;;5050800;28;20193;-69
2022/12/15 10:06:50;;;;;;;261.20;239.77;;;1.10;22.70;;;;;;5095532;28;20221;-69
2022/12/15 10:09:20;;;;;;;250.80;229.02;;;1.00;22.90;;;;;;5081410;28;20681;-69
2022/12/15 10:12:00;;;;;;;139.13;110.68;;;1.00;23.90;;;;;;5080312;28;20187;-68
2022/12/15 10:14:48;;;;;;;182.88;165.38;;;0.80;25.30;;;;;;5044901;28;20199;-70
2022/12/15 10:17:41;;;;;;;228.68;208.70;;;0.80;25.70;;;;;;5059648;28;20182;-69
2022/12/15 10:20:18;;;;;;;214.57;195.40;;;0.70;25.70;;;;;;5070364;28;20202;-70
2022/12/15 10:22:44;;;;;;;254.75;233.00;;;0.60;25.60;;;;;;5069669;28;20671;-70
2022/12/15 10:25:23;;;;;;;309.07;284.63;;;0.60;26.40;;;;;;5062226;28;20190;-69
2022/12/15 10:28:14;;;;;;;177.75;159.20;;;0.50;26.10;;;;;;5062091;28;20420;-70
2022/12/15 10:30:50;;;;;;;134.45;116.28;;;0.50;27.10;;;;;;5061232;28;20361;-70
2022/12/15 10:33:18;;;;;;;319.25;294.08;;;0.70;26.80;;;;;;5061580;28;20468;-70
2022/12/15 10:35:44;;;;;;;249.82;227.30;;;0.70;26.60;;;;;;5061848;28;20167;-69
2022/12/15 10:38:33;;;;;;;222.55;202.75;;;0.80;27.70;;;;;;5061726;28;20163;-70
2022/12/15 10:41:13;;;;;;;195.85;178.68;;;1.00;26.70;;;;;;5060227;28;20261;-69
2022/12/15 10:43:42;;;;;;;153.43;135.38;;;1.10;25.90;;;;;;5058191;28;20668;-70
2022/12/15 10:46:08;;;;;;;225.80;206.60;;;1.20;25.70;;;;;;5065993;28;20251;-70
2022/12/15 10:48:42;;;;;;;134.88;110.65;;;1.20;25.50;;;;;;5080267;28;20262;-69
2022/12/15 10:51:33;;;;;;;315.27;291.45;;;1.40;24.60;;;;;;5078684;28;20289;-68
2022/12/15 10:54:08;;;;;;;345.02;316.80;;;1.60;24.00;;;;;;5040182;28;20183;-70
2022/12/15 10:57:04;;;;;;;125.70;104.93;;;1.40;23.10;;;;;;5040800;28;20543;-70
2022/12/15 10:59:32;;;;;;;158.05;137.95;;;1.50;23.80;;;;;;5034331;28;20212;-70
2022/12/15 11:02:19;;;;;;;254.88;234.00;;;1.70;23.40;;;;;;5043371;28;20199;-70
2022/12/15 11:05:03;;;;;;;204.32;184.70;;;1.90;22.30;;;;;;5072242;28;20209;-68
2022/12/15 11:07:41;;;;;;;136.45;97.93;;;2.00;22.40;;;;;;5084081;28;20191;-69
2022/12/15 11:13:22;;;;;;;129.98;104.95;;;2.20;22.20;;;;;;5082417;28;20192;-68
2022/12/15 11:15:51;;;;;;;145.52;127.15;;;2.20;21.90;;;;;;5080447;28;20652;-69
2022/12/15 11:18:45;;;;;;;255.38;233.40;;;2.30;21.80;;;;;;5080560;28;20178;-70
2022/12/15 11:21:20;;;;;;;208.98;190.60;;;2.20;21.10;;;;;;5061506;28;20228;-70
2022/12/15 11:24:24;;;;;;;118.15;82.85;;;2.00;21.80;;;;;;5061284;28;20178;-69
2022/12/15 11:26:57;;;;;;;171.43;154.15;;;2.00;21.90;;;;;;5075886;28;20182;-70
2022/12/15 11:31:54;;;;;;;292.88;270.27;;;2.00;22.80;;;;;;5100161;22;20316;-70
2022/12/15 11:34:25;;;;;;;135.65;121.10;;;2.30;22.60;;;;;;5077216;28;20314;-70
2022/12/15 11:37:06;;;;;;;274.10;252.90;;;2.50;21.60;;;;;;5078198;28;20186;-71
2022/12/15 11:39:56;;;;;;;173.00;156.55;;;2.50;21.00;;;;;;5075121;28;20166;-76
2022/12/15 11:42:39;;;;;;;155.40;137.05;;;2.70;21.20;;;;;;5064251;28;20211;-72
2022/12/15 11:45:23;;;;;;;354.58;327.55;;;2.80;20.90;;;;;;5054769;28;20198;-70
2022/12/15 11:47:58;;;;;;;351.30;323.25;;;2.80;20.10;;;;;;5054496;28;20677;-71
2022/12/15 11:50:26;;;;;;;223.18;204.25;;;2.90;20.20;;;;;;5042295;28;20228;-71
2022/12/15 11:53:11;;;;;;;175.98;157.50;;;2.70;20.50;;;;;;5033631;28;20549;-72
2022/12/15 11:55:52;;;;;;;162.73;146.60;;;3.00;20.10;;;;;;5057415;28;20276;-74
2022/12/15 11:58:34;;;;;;;315.52;290.80;;;3.30;19.10;;;;;;5053635;28;20874;-76
2022/12/15 12:01:41;;;;;;;283.02;261.15;;;3.50;18.30;;;;;;5068894;28;20206;-75
2022/12/15 12:04:25;;;;;;;443.60;410.98;;;3.20;19.00;;;;;;5067882;28;20189;-75
2022/12/15 12:07:04;;;;;;;281.48;258.27;;;2.90;19.00;;;;;;5053772;28;20169;-76
2022/12/15 12:09:42;;;;;;;316.00;291.83;;;2.70;20.30;;;;;;5057547;28;20173;-77
2022/12/15 12:12:36;;;;;;;394.75;363.42;;;2.60;20.10;;;;;;5060946;28;20180;-74
2022/12/15 12:15:30;;;;;;;246.18;224.98;;;2.20;20.30;;;;;;5057687;28;20180;-74
2022/12/15 12:18:11;;;;;;;216.15;196.60;;;2.00;22.40;;;;;;5042983;28;20181;-72
2022/12/15 12:21:02;;;;;;;222.00;202.35;;;2.10;22.20;;;;;;5047615;28;20647;-73
2022/12/15 12:24:05;;;;;;;143.23;120.47;;;2.30;21.50;;;;;;5072427;28;20190;-71
2022/12/15 12:26:39;;;;;;;144.52;128.30;;;2.30;22.20;;;;;;5036223;28;20184;-73
2022/12/15 12:29:11;;;;;;;344.75;318.00;;;2.20;21.90;;;;;;5037053;28;20181;-71
2022/12/15 12:31:52;;;;;;;241.55;221.38;;;2.10;22.30;;;;;;5085006;22;20224;-71
2022/12/15 12:34:45;;;;;;;125.32;104.13;;;2.00;22.70;;;;;;5071938;28;20186;-71
2022/12/15 12:37:30;;;;;;;169.43;149.90;;;2.00;22.90;;;;;;5075503;28;20705;-72
2022/12/15 12:40:18;;;;;;;136.88;107.32;;;1.90;23.70;;;;;;5071543;28;20647;-71
2022/12/15 12:42:53;;;;;;;191.95;173.77;;;1.90;23.60;;;;;;5056922;28;20218;-71
2022/12/15 12:45:22;;;;;;;208.15;189.25;;;1.70;23.40;;;;;;5058531;28;20559;-71
2022/12/15 12:47:52;;;;;;;129.70;100.45;;;1.60;23.90;;;;;;5057619;28;20559;-72
2022/12/15 12:50:22;;;;;;;124.05;91.90;;;1.50;24.70;;;;;;5058538;28;20587;-71
2022/12/15 12:53:00;;;;;;;130.60;97.00;;;1.30;26.00;;;;;;5052753;28;20225;-71
2022/12/15 12:55:44;;;;;;;137.40;96.40;;;1.30;26.00;;;;;;5043116;28;20183;-70
2022/12/15 12:58:40;;;;;;;136.57;116.63;;;1.30;26.60;;;;;;5056580;28;20179;-69
2022/12/15 13:01:29;;;;;;;286.48;263.55;;;1.20;25.90;;;;;;5055895;28;20206;-70
2022/12/15 13:04:12;;;;;;;332.40;305.45;;;1.10;25.90;;;;;;5055014;28;20178;-71
2022/12/15 13:06:37;;;;;;;174.90;157.80;;;0.90;26.60;;;;;;5054817;28;20655;-70
2022/12/15 13:09:15;;;;;;;121.03;94.80;;;0.80;27.30;;;;;;5056076;28;20171;-70
2022/12/15 13:11:47;;;;;;;415.08;380.73;;;0.80;28.40;;;;;;5055755;28;20332;-69
2022/12/15 13:14:38;;;;;;;273.30;250.23;;;0.80;27.90;;;;;;5056367;28;20660;-70
2022/12/15 13:17:15;;;;;;;221.43;202.77;;;0.80;28.40;;;;;;5055948;28;20257;-72
2022/12/15 13:20:01;;;;;;;187.98;169.07;;;0.70;28.50;;;;;;5056044;28;20201;-70
2022/12/15 13:22:47;;;;;;;261.60;240.75;;;0.70;29.00;;;;;;5013875;28;20246;-70
2022/12/15 13:25:39;;;;;;;241.07;219.27;;;0.70;29.60;;;;;;5054207;28;20186;-70
2022/12/15 13:28:34;;;;;;;125.25;90.63;;;0.60;29.60;;;;;;5056330;28;20261;-71
2022/12/15 13:31:15;;;;;;;199.07;180.98;;;0.70;29.80;;;;;;5054460;28;20218;-71
2022/12/15 13:33:49;;;;;;;140.30;124.65;;;0.80;29.70;;;;;;5055593;28;20238;-71
2022/12/15 13:36:37;;;;;;;119.78;86.07;;;0.90;29.80;;;;;;5055208;28;20174;-70
2022/12/15 13:39:11;;;;;;;123.03;90.32;;;1.00;29.50;;;;;;5054844;28;20265;-71
2022/12/15 13:42:00;;;;;;;129.95;101.65;;;1.30;28.70;;;;;;5052204;28;20397;-70
2022/12/15 13:44:29;;;;;;;130.98;105.82;;;1.40;28.20;;;;;;5022564;28;20655;-70
2022/12/15 13:47:17;;;;;;;213.98;194.80;;;1.60;28.00;;;;;;5051492;28;20224;-71
2022/12/15 13:50:02;;;;;;;133.27;109.07;;;1.70;26.30;;;;;;5049620;28;20626;-71
2022/12/15 13:52:50;;;;;;;133.00;97.22;;;1.80;26.20;;;;;;5052347;28;20187;-71
2022/12/15 13:55:23;;;;;;;166.65;150.20;;;1.70;25.90;;;;;;5054028;28;20187;-70
2022/12/15 13:58:13;;;;;;;151.60;131.40;;;1.50;26.10;;;;;;5053590;28;20201;-71
2022/12/15 14:00:50;;;;;;;129.85;99.03;;;1.50;27.00;;;;;;5051639;28;20290;-71
2022/12/15 14:03:15;;;;;;;132.73;98.68;;;1.60;26.80;;;;;;5052378;28;20232;-71
2022/12/15 14:06:09;;;;;;;127.83;97.33;;;1.70;26.30;;;;;;5051267;28;20204;-71
2022/12/15 14:08:36;;;;;;;133.98;98.25;;;1.80;26.30;;;;;;5052366;28;20230;-72
2022/12/15 14:11:02;;;;;;;152.15;135.63;;;2.00;25.60;;;;;;5051135;28;20312;-69
2022/12/15 14:13:32;;;;;;;140.67;123.60;;;2.00;25.70;;;;;;5052221;28;20682;-71
2022/12/15 14:16:16;;;;;;;122.85;92.40;;;2.00;25.80;;;;;;5051484;28;20177;-71
2022/12/15 14:18:43;;;;;;;128.27;109.70;;;2.10;25.70;;;;;;5056025;28;20684;-71
2022/12/15 14:21:23;;;;;;;179.77;163.40;;;2.10;25.00;;;;;;5054860;28;20213;-71
2022/12/15 14:23:49;;;;;;;212.63;194.48;;;2.10;25.00;;;;;;5058990;28;20188;-71
2022/12/15 14:26:15;;;;;;;315.03;291.13;;;2.00;25.00;;;;;;5044412;28;20646;-74
2022/12/15 14:28:44;;;;;;;180.73;163.60;;;2.00;25.60;;;;;;5041778;28;20180;-72
2022/12/15 14:31:22;;;;;;;127.88;94.75;;;2.00;25.60;;;;;;5055313;28;20297;-71
2022/12/15 14:34:01;;;;;;;250.98;230.32;;;1.90;26.00;;;;;;5055318;28;20547;-71
2022/12/15 14:36:27;;;;;;;257.50;235.80;;;1.60;26.20;;;;;;5042558;28;20730;-70
2022/12/15 14:38:55;;;;;;;297.27;274.27;;;1.40;27.00;;;;;;5054152;28;20217;-70
2022/12/15 14:41:26;;;;;;;241.95;222.27;;;1.30;27.20;;;;;;5045370;28;20211;-69
2022/12/15 14:43:56;;;;;;;122.80;98.35;;;1.10;28.40;;;;;;5036022;28;20188;-72
2022/12/15 14:46:24;;;;;;;209.55;191.02;;;1.10;28.90;;;;;;5050381;28;20190;-71
2022/12/15 14:49:04;;;;;;;187.27;169.93;;;1.10;28.80;;;;;;5055367;28;20169;-71
2022/12/15 14:51:43;;;;;;;248.15;227.15;;;0.90;29.30;;;;;;5055941;28;20281;-72
2022/12/15 14:54:32;;;;;;;125.22;101.13;;;0.70;29.70;;;;;;5054857;28;20609;-72
2022/12/15 14:57:19;;;;;;;120.45;91.82;;;0.70;30.90;;;;;;5054067;28;20185;-72
2022/12/15 14:59:47;;;;;;;127.82;113.40;;;0.80;30.80;;;;;;5053828;28;20282;-72
2022/12/15 15:02:25;;;;;;;155.15;137.77;;;0.70;30.50;;;;;;5053677;28;20198;-72
2022/12/15 15:05:07;;;;;;;203.15;185.15;;;0.70;30.60;;;;;;5057208;28;20170;-71
2022/12/15 15:07:37;;;;;;;288.17;263.20;;;0.60;30.00;;;;;;5054458;28;20189;-71
2022/12/15 15:10:23;;;;;;;265.60;243.43;;;0.50;30.40;;;;;;5054006;28;20198;-71
2022/12/15 15:12:49;;;;;;;120.18;70.95;;;0.40;31.50;;;;;;5054695;28;20192;-71